createdAt,value
2017-12-15T00:00:09.341Z,30.02
2017-12-15T00:01:09.316Z,29.99
2017-12-15T00:02:09.304Z,29.98
2017-12-15T00:03:09.266Z,29.89
2017-12-15T00:04:09.267Z,29.87
2017-12-15T00:05:09.234Z,29.90
2017-12-15T00:06:09.199Z,29.83
2017-12-15T00:07:09.174Z,29.83
2017-12-15T00:08:09.149Z,29.84
2017-12-15T00:09:09.139Z,29.81
2017-12-15T00:10:09.120Z,29.76
2017-12-15T00:11:09.099Z,29.64
2017-12-15T00:12:09.070Z,29.68
2017-12-15T00:13:09.054Z,29.68
2017-12-15T00:14:09.048Z,29.62
2017-12-15T00:15:09.012Z,29.61
2017-12-15T00:16:08.986Z,29.57
2017-12-15T00:17:08.982Z,29.57
2017-12-15T00:18:08.945Z,29.55
2017-12-15T00:19:08.917Z,29.50
2017-12-15T00:20:08.897Z,29.52
2017-12-15T00:21:08.885Z,29.53
2017-12-15T00:22:08.866Z,29.53
2017-12-15T00:23:08.834Z,29.53
2017-12-15T00:24:08.833Z,29.50
2017-12-15T00:25:08.781Z,29.50
2017-12-15T00:26:08.763Z,29.49
2017-12-15T00:27:08.815Z,29.52
2017-12-15T00:28:08.721Z,29.52
2017-12-15T00:29:08.709Z,29.50
2017-12-15T00:30:08.684Z,29.57
2017-12-15T00:31:08.659Z,29.46
2017-12-15T00:32:08.631Z,29.46
2017-12-15T00:33:08.631Z,29.52
2017-12-15T00:34:08.591Z,29.39
2017-12-15T00:35:08.581Z,29.35
2017-12-15T00:36:08.540Z,29.40
2017-12-15T00:37:08.532Z,29.34
2017-12-15T00:38:08.508Z,29.40
2017-12-15T00:39:08.462Z,29.35
2017-12-15T00:40:08.511Z,29.43
2017-12-15T00:41:08.439Z,29.40
2017-12-15T00:42:08.418Z,29.43
2017-12-15T00:43:08.416Z,29.30
2017-12-15T00:44:08.375Z,29.25
2017-12-15T00:45:08.365Z,29.25
2017-12-15T00:46:08.339Z,29.31
2017-12-15T00:47:08.305Z,29.24
2017-12-15T00:48:08.290Z,29.18
2017-12-15T00:49:08.269Z,29.13
2017-12-15T00:50:08.258Z,29.18
2017-12-15T00:51:08.222Z,29.25
2017-12-15T00:52:08.224Z,29.15
2017-12-15T00:53:08.168Z,29.24
2017-12-15T00:54:08.151Z,29.22
2017-12-15T00:55:08.127Z,29.16
2017-12-15T00:56:08.111Z,29.15
2017-12-15T00:57:08.102Z,29.10
2017-12-15T00:58:08.607Z,29.09
2017-12-15T00:59:08.061Z,29.07
2017-12-15T01:00:08.012Z,29.07
2017-12-15T01:01:08.014Z,29.03
2017-12-15T01:02:07.995Z,29.00
2017-12-15T01:03:07.949Z,28.90
2017-12-15T01:04:07.966Z,28.89
2017-12-15T01:05:07.911Z,28.97
2017-12-15T01:06:07.896Z,28.96
2017-12-15T01:07:07.864Z,28.90
2017-12-15T01:08:07.839Z,28.89
2017-12-15T01:09:07.821Z,28.87
2017-12-15T01:10:07.794Z,28.84
2017-12-15T01:11:07.787Z,28.86
2017-12-15T01:12:07.774Z,28.82
2017-12-15T01:13:07.727Z,28.80
2017-12-15T01:14:07.707Z,28.84
2017-12-15T01:15:07.686Z,28.80
2017-12-15T01:16:07.667Z,28.89
2017-12-15T01:17:07.637Z,28.83
2017-12-15T01:18:07.630Z,28.86
2017-12-15T01:19:07.599Z,28.83
2017-12-15T01:20:07.572Z,28.83
2017-12-15T01:21:07.558Z,28.71
2017-12-15T01:22:07.530Z,28.70
2017-12-15T01:23:07.509Z,28.72
2017-12-15T01:24:07.479Z,28.70
2017-12-15T01:25:07.467Z,28.71
2017-12-15T01:26:07.458Z,28.57
2017-12-15T01:27:07.430Z,28.62
2017-12-15T01:28:07.412Z,28.59
2017-12-15T01:29:07.363Z,28.65
2017-12-15T01:30:07.351Z,28.55
2017-12-15T01:31:07.331Z,28.56
2017-12-15T01:32:07.317Z,28.64
2017-12-15T01:33:07.299Z,28.62
2017-12-15T01:34:07.252Z,28.67
2017-12-15T01:35:07.239Z,28.52
2017-12-15T01:36:08.115Z,28.55
2017-12-15T01:37:07.182Z,28.55
2017-12-15T01:38:07.170Z,28.49
2017-12-15T01:39:07.159Z,28.45
2017-12-15T01:40:07.175Z,28.50
2017-12-15T01:41:07.102Z,28.38
2017-12-15T01:42:07.071Z,28.45
2017-12-15T01:43:07.059Z,28.43
2017-12-15T01:44:07.035Z,28.38
2017-12-15T01:45:07.005Z,28.52
2017-12-15T01:46:07.027Z,28.47
2017-12-15T01:47:06.964Z,28.38
2017-12-15T01:48:06.947Z,28.47
2017-12-15T01:49:07.914Z,28.37
2017-12-15T01:50:06.919Z,28.34
2017-12-15T01:51:06.883Z,28.34
2017-12-15T01:52:06.853Z,28.30
2017-12-15T01:53:06.840Z,28.34
2017-12-15T01:54:06.811Z,28.23
2017-12-15T01:55:06.791Z,28.23
2017-12-15T01:56:06.764Z,28.22
2017-12-15T01:57:06.735Z,28.22
2017-12-15T01:58:06.719Z,28.16
2017-12-15T01:59:06.709Z,28.16
2017-12-15T02:00:06.692Z,28.18
2017-12-15T02:01:06.651Z,28.09
2017-12-15T02:02:06.621Z,28.10
2017-12-15T02:03:06.601Z,28.08
2017-12-15T02:04:06.599Z,28.00
2017-12-15T02:05:06.550Z,28.01
2017-12-15T02:06:06.548Z,27.98
2017-12-15T02:07:06.521Z,27.97
2017-12-15T02:08:06.517Z,28.03
2017-12-15T02:09:06.486Z,27.98
2017-12-15T02:10:06.456Z,27.95
2017-12-15T02:11:06.420Z,27.91
2017-12-15T02:12:06.400Z,27.90
2017-12-15T02:13:06.395Z,27.88
2017-12-15T02:14:06.365Z,27.91
2017-12-15T02:15:06.340Z,27.81
2017-12-15T02:16:06.327Z,27.79
2017-12-15T02:17:06.294Z,27.82
2017-12-15T02:18:06.272Z,27.76
2017-12-15T02:19:06.237Z,27.73
2017-12-15T02:20:06.228Z,27.72
2017-12-15T02:21:06.195Z,27.75
2017-12-15T02:22:06.182Z,27.72
2017-12-15T02:23:07.134Z,27.67
2017-12-15T02:24:06.136Z,27.61
2017-12-15T02:25:06.097Z,27.64
2017-12-15T02:26:06.082Z,27.68
2017-12-15T02:27:06.045Z,27.61
2017-12-15T02:28:06.038Z,27.58
2017-12-15T02:29:06.627Z,27.60
2017-12-15T02:30:05.998Z,27.61
2017-12-15T02:31:05.990Z,27.58
2017-12-15T02:32:05.950Z,27.57
2017-12-15T02:33:05.905Z,27.52
2017-12-15T02:34:05.913Z,27.43
2017-12-15T02:35:05.874Z,27.37
2017-12-15T02:36:05.842Z,27.41
2017-12-15T02:37:05.817Z,27.34
2017-12-15T02:38:05.802Z,27.37
2017-12-15T02:39:05.797Z,27.38
2017-12-15T02:40:05.772Z,27.29
2017-12-15T02:41:05.733Z,27.34
2017-12-15T02:42:05.721Z,27.29
2017-12-15T02:43:05.690Z,27.34
2017-12-15T02:44:05.661Z,27.34
2017-12-15T02:45:05.650Z,27.25
2017-12-15T02:46:05.613Z,27.28
2017-12-15T02:47:05.604Z,27.22
2017-12-15T02:48:05.582Z,27.18
2017-12-15T02:49:05.559Z,27.22
2017-12-15T02:50:05.539Z,27.25
2017-12-15T02:51:05.508Z,27.15
2017-12-15T02:52:05.480Z,27.13
2017-12-15T02:53:05.452Z,27.13
2017-12-15T02:54:05.428Z,27.11
2017-12-15T02:55:05.415Z,27.05
2017-12-15T02:56:05.379Z,27.08
2017-12-15T02:57:05.361Z,27.03
2017-12-15T02:58:05.331Z,27.05
2017-12-15T02:59:05.309Z,27.03
2017-12-15T03:00:05.284Z,27.15
2017-12-15T03:01:05.275Z,27.01
2017-12-15T03:02:05.239Z,27.01
2017-12-15T03:03:05.213Z,26.97
2017-12-15T03:04:05.189Z,26.98
2017-12-15T03:05:05.175Z,26.93
2017-12-15T03:06:05.145Z,26.93
2017-12-15T03:07:06.144Z,26.93
2017-12-15T03:08:05.102Z,26.97
2017-12-15T03:09:05.077Z,26.96
2017-12-15T03:10:05.052Z,26.89
2017-12-15T03:11:05.047Z,26.96
2017-12-15T03:12:05.018Z,26.92
2017-12-15T03:13:04.981Z,26.86
2017-12-15T03:14:04.955Z,26.79
2017-12-15T03:15:04.936Z,26.76
2017-12-15T03:16:04.925Z,26.71
2017-12-15T03:17:04.887Z,26.74
2017-12-15T03:18:04.863Z,26.67
2017-12-15T03:19:04.852Z,26.70
2017-12-15T03:20:04.821Z,26.67
2017-12-15T03:21:04.785Z,26.67
2017-12-15T03:22:04.781Z,26.60
2017-12-15T03:23:04.751Z,26.56
2017-12-15T03:24:04.740Z,26.63
2017-12-15T03:25:04.698Z,26.59
2017-12-15T03:26:04.662Z,26.53
2017-12-15T03:27:04.653Z,26.61
2017-12-15T03:28:04.626Z,26.55
2017-12-15T03:29:04.619Z,26.55
2017-12-15T03:30:04.598Z,26.56
2017-12-15T03:31:04.568Z,26.52
2017-12-15T03:32:04.590Z,26.44
2017-12-15T03:33:04.511Z,26.45
2017-12-15T03:34:04.487Z,26.46
2017-12-15T03:35:04.458Z,26.42
2017-12-15T03:36:04.454Z,26.51
2017-12-15T03:37:04.410Z,26.45
2017-12-15T03:38:04.393Z,26.46
2017-12-15T03:39:04.365Z,26.41
2017-12-15T03:40:04.361Z,26.46
2017-12-15T03:41:04.307Z,26.36
2017-12-15T03:42:04.297Z,26.31
2017-12-15T03:43:04.287Z,26.24
2017-12-15T03:44:04.252Z,26.29
2017-12-15T03:45:04.225Z,26.29
2017-12-15T03:46:04.204Z,26.29
2017-12-15T03:47:04.170Z,26.27
2017-12-15T03:48:04.156Z,26.24
2017-12-15T03:49:04.143Z,26.26
2017-12-15T03:50:04.107Z,26.19
2017-12-15T03:51:04.097Z,26.24
2017-12-15T03:52:04.070Z,26.23
2017-12-15T03:53:04.051Z,26.16
2017-12-15T03:54:04.029Z,26.06
2017-12-15T03:55:04.657Z,26.06
2017-12-15T03:56:03.969Z,26.06
2017-12-15T03:57:03.942Z,26.06
2017-12-15T03:58:03.914Z,26.10
2017-12-15T03:59:03.893Z,25.93
2017-12-15T04:00:03.878Z,26.01
2017-12-15T04:01:03.842Z,26.06
2017-12-15T04:02:03.832Z,25.96
2017-12-15T04:03:03.811Z,25.91
2017-12-15T04:04:03.804Z,25.98
2017-12-15T04:05:04.657Z,25.95
2017-12-15T04:06:03.738Z,26.04
2017-12-15T04:07:03.708Z,25.96
2017-12-15T04:08:03.673Z,25.92
2017-12-15T04:09:03.651Z,26.04
2017-12-15T04:10:03.634Z,25.98
2017-12-15T04:11:03.594Z,26.06
2017-12-15T04:12:03.596Z,26.01
2017-12-15T04:13:03.556Z,26.03
2017-12-15T04:14:03.553Z,26.03
2017-12-15T04:15:03.508Z,25.91
2017-12-15T04:16:03.476Z,25.91
2017-12-15T04:17:03.463Z,25.86
2017-12-15T04:18:03.447Z,25.80
2017-12-15T04:19:03.410Z,25.88
2017-12-15T04:20:03.403Z,25.88
2017-12-15T04:21:03.355Z,25.83
2017-12-15T04:22:03.348Z,25.76
2017-12-15T04:23:03.327Z,25.77
2017-12-15T04:24:03.308Z,25.74
2017-12-15T04:25:03.284Z,25.74
2017-12-15T04:26:03.252Z,25.78
2017-12-15T04:27:03.267Z,25.68
2017-12-15T04:28:03.250Z,25.70
2017-12-15T04:29:03.172Z,25.68
2017-12-15T04:30:03.133Z,25.70
2017-12-15T04:31:03.139Z,25.67
2017-12-15T04:32:03.109Z,25.63
2017-12-15T04:33:03.081Z,25.62
2017-12-15T04:34:03.039Z,25.58
2017-12-15T04:35:03.035Z,25.58
2017-12-15T04:36:03.004Z,25.58
2017-12-15T04:37:02.970Z,25.54
2017-12-15T04:38:02.943Z,25.55
2017-12-15T04:39:02.920Z,25.55
2017-12-15T04:40:02.905Z,25.52
2017-12-15T04:41:02.872Z,25.44
2017-12-15T04:42:02.860Z,25.48
2017-12-15T04:43:02.825Z,25.49
2017-12-15T04:44:02.814Z,25.41
2017-12-15T04:45:02.778Z,25.44
2017-12-15T04:46:02.770Z,25.31
2017-12-15T04:47:02.734Z,25.37
2017-12-15T04:48:02.728Z,25.31
2017-12-15T04:49:02.694Z,25.40
2017-12-15T04:50:02.654Z,25.43
2017-12-15T04:51:02.639Z,25.43
2017-12-15T04:52:02.607Z,25.43
2017-12-15T04:53:02.606Z,25.48
2017-12-15T04:54:02.566Z,25.41
2017-12-15T04:55:02.542Z,25.40
2017-12-15T04:56:02.507Z,25.46
2017-12-15T04:57:02.495Z,25.41
2017-12-15T04:58:02.477Z,25.40
2017-12-15T04:59:02.450Z,25.40
2017-12-15T05:00:02.405Z,25.39
2017-12-15T05:01:02.393Z,25.25
2017-12-15T05:02:02.380Z,25.29
2017-12-15T05:03:02.389Z,25.16
2017-12-15T05:04:02.309Z,25.15
2017-12-15T05:05:02.295Z,25.21
2017-12-15T05:06:02.275Z,25.12
2017-12-15T05:07:02.250Z,25.03
2017-12-15T05:08:02.219Z,25.07
2017-12-15T05:09:02.214Z,25.01
2017-12-15T05:10:02.226Z,25.07
2017-12-15T05:11:02.160Z,25.11
2017-12-15T05:12:02.131Z,25.00
2017-12-15T05:13:02.102Z,24.94
2017-12-15T05:14:02.092Z,24.94
2017-12-15T05:15:02.087Z,24.96
2017-12-15T05:16:02.052Z,24.99
2017-12-15T05:17:02.004Z,24.99
2017-12-15T05:18:01.965Z,24.97
2017-12-15T05:19:01.955Z,24.93
2017-12-15T05:20:01.938Z,24.94
2017-12-15T05:21:01.905Z,25.00
2017-12-15T05:22:01.906Z,24.96
2017-12-15T05:23:01.856Z,24.86
2017-12-15T05:24:01.825Z,24.82
2017-12-15T05:25:01.811Z,24.97
2017-12-15T05:26:01.821Z,24.97
2017-12-15T05:27:01.747Z,24.86
2017-12-15T05:28:01.730Z,24.92
2017-12-15T05:29:01.711Z,24.82
2017-12-15T05:30:01.691Z,24.88
2017-12-15T05:31:01.658Z,24.86
2017-12-15T05:32:01.641Z,24.84
2017-12-15T05:33:01.609Z,24.81
2017-12-15T05:34:01.602Z,24.77
2017-12-15T05:35:01.548Z,24.78
2017-12-15T05:36:01.537Z,24.78
2017-12-15T05:37:01.527Z,24.66
2017-12-15T05:38:01.495Z,24.68
2017-12-15T05:39:01.472Z,24.66
2017-12-15T05:40:01.438Z,24.65
2017-12-15T05:41:01.428Z,24.68
2017-12-15T05:42:01.394Z,24.65
2017-12-15T05:43:01.367Z,24.51
2017-12-15T05:44:01.347Z,24.68
2017-12-15T05:45:01.353Z,24.71
2017-12-15T05:46:01.268Z,24.50
2017-12-15T05:47:01.276Z,24.62
2017-12-15T05:48:01.249Z,24.50
2017-12-15T05:49:01.213Z,24.47
2017-12-15T05:50:01.187Z,24.47
2017-12-15T05:51:01.171Z,24.48
2017-12-15T05:52:01.145Z,24.44
2017-12-15T05:53:01.112Z,24.47
2017-12-15T05:54:01.081Z,24.36
2017-12-15T05:55:01.076Z,24.41
2017-12-15T05:56:01.022Z,24.32
2017-12-15T05:57:01.008Z,24.31
2017-12-15T05:58:01.000Z,24.38
2017-12-15T05:59:00.971Z,24.38
2017-12-15T06:00:00.943Z,24.34
2017-12-15T06:01:00.912Z,24.31
2017-12-15T06:02:00.886Z,24.24
2017-12-15T06:03:00.874Z,24.22
2017-12-15T06:04:00.836Z,24.14
2017-12-15T06:05:00.818Z,24.16
2017-12-15T06:06:00.796Z,24.19
2017-12-15T06:07:00.750Z,24.10
2017-12-15T06:08:00.747Z,24.13
2017-12-15T06:09:00.708Z,24.11
2017-12-15T06:10:00.690Z,24.11
2017-12-15T06:11:00.651Z,24.18
2017-12-15T06:12:00.635Z,24.11
2017-12-15T06:13:00.659Z,24.10
2017-12-15T06:14:00.567Z,24.09
2017-12-15T06:15:00.562Z,24.09
2017-12-15T06:16:00.533Z,24.10
2017-12-15T06:17:00.504Z,24.07
2017-12-15T06:18:00.482Z,24.04
2017-12-15T06:19:00.459Z,24.03
2017-12-15T06:20:00.424Z,23.96
2017-12-15T06:21:00.407Z,24.04
2017-12-15T06:22:00.399Z,23.99
2017-12-15T06:23:00.361Z,23.99
2017-12-15T06:24:00.328Z,23.96
2017-12-15T06:25:01.187Z,23.95
2017-12-15T06:26:00.300Z,23.88
2017-12-15T06:27:00.242Z,23.89
2017-12-15T06:28:00.238Z,23.82
2017-12-15T06:29:00.201Z,23.76
2017-12-15T06:30:00.188Z,23.81
2017-12-15T06:31:00.142Z,23.71
2017-12-15T06:32:00.117Z,23.77
2017-12-15T06:33:00.097Z,23.77
2017-12-15T06:34:00.077Z,23.76
2017-12-15T06:35:00.055Z,23.73
2017-12-15T06:36:00.023Z,23.79
2017-12-15T06:36:59.995Z,23.69
2017-12-15T06:38:00.696Z,23.71
2017-12-15T06:38:59.990Z,23.69
2017-12-15T06:39:59.921Z,23.71
2017-12-15T06:40:59.912Z,23.69
2017-12-15T06:41:59.888Z,23.71
2017-12-15T06:42:59.836Z,23.70
2017-12-15T06:43:59.837Z,23.69
2017-12-15T06:44:59.811Z,23.73
2017-12-15T06:45:59.783Z,23.71
2017-12-15T06:46:59.737Z,23.69
2017-12-15T06:47:59.713Z,23.79
2017-12-15T06:48:59.694Z,23.69
2017-12-15T06:49:59.670Z,23.74
2017-12-15T06:50:59.645Z,23.74
2017-12-15T06:51:59.616Z,23.69
2017-12-15T06:52:59.606Z,23.74
2017-12-15T06:53:59.578Z,23.71
2017-12-15T06:54:59.537Z,23.63
2017-12-15T06:55:59.531Z,23.66
2017-12-15T06:56:59.480Z,23.66
2017-12-15T06:57:59.447Z,23.70
2017-12-15T06:58:59.431Z,23.66
2017-12-15T06:59:59.410Z,23.66
2017-12-15T07:00:59.399Z,23.59
2017-12-15T07:01:59.355Z,23.58
2017-12-15T07:02:59.318Z,23.62
2017-12-15T07:03:59.325Z,23.51
2017-12-15T07:04:59.283Z,23.59
2017-12-15T07:05:59.254Z,23.64
2017-12-15T07:06:59.232Z,23.58
2017-12-15T07:07:59.190Z,23.59
2017-12-15T07:08:59.170Z,23.55
2017-12-15T07:09:59.177Z,23.56
2017-12-15T07:10:59.164Z,23.54
2017-12-15T07:11:59.117Z,23.49
2017-12-15T07:12:59.087Z,23.48
2017-12-15T07:13:59.051Z,23.49
2017-12-15T07:14:59.044Z,23.51
2017-12-15T07:15:58.984Z,23.48
2017-12-15T07:16:58.989Z,23.47
2017-12-15T07:17:58.981Z,23.37
2017-12-15T07:18:58.933Z,23.36
2017-12-15T07:19:58.897Z,23.39
2017-12-15T07:20:58.885Z,23.39
2017-12-15T07:21:58.849Z,23.44
2017-12-15T07:22:58.840Z,23.42
2017-12-15T07:23:58.805Z,23.36
2017-12-15T07:24:58.767Z,23.29
2017-12-15T07:25:58.757Z,23.29
2017-12-15T07:26:58.716Z,23.36
2017-12-15T07:27:58.691Z,23.29
2017-12-15T07:28:58.654Z,23.32
2017-12-15T07:29:58.643Z,23.26
2017-12-15T07:30:58.613Z,23.28
2017-12-15T07:31:58.583Z,23.26
2017-12-15T07:32:58.563Z,23.28
2017-12-15T07:33:58.530Z,23.39
2017-12-15T07:34:58.505Z,23.25
2017-12-15T07:35:58.493Z,23.34
2017-12-15T07:36:58.460Z,23.23
2017-12-15T07:37:58.427Z,23.25
2017-12-15T07:38:58.420Z,23.23
2017-12-15T07:39:58.392Z,23.21
2017-12-15T07:40:58.351Z,23.26
2017-12-15T07:41:58.328Z,23.26
2017-12-15T07:42:58.304Z,23.25
2017-12-15T07:43:58.269Z,23.26
2017-12-15T07:44:58.251Z,23.25
2017-12-15T07:45:58.223Z,23.25
2017-12-15T07:46:58.194Z,23.28
2017-12-15T07:47:58.206Z,23.32
2017-12-15T07:48:58.150Z,23.28
2017-12-15T07:49:58.121Z,23.25
2017-12-15T07:50:58.092Z,23.23
2017-12-15T07:51:58.081Z,23.23
2017-12-15T07:52:58.063Z,23.32
2017-12-15T07:53:58.017Z,23.21
2017-12-15T07:54:58.007Z,23.28
2017-12-15T07:55:57.964Z,23.25
2017-12-15T07:56:57.940Z,23.26
2017-12-15T07:57:57.925Z,23.25
2017-12-15T07:58:57.887Z,23.32
2017-12-15T07:59:57.865Z,23.25
2017-12-15T08:00:57.830Z,23.25
2017-12-15T08:01:57.804Z,23.26
2017-12-15T08:02:57.783Z,23.23
2017-12-15T08:03:57.752Z,23.26
2017-12-15T08:04:57.736Z,23.23
2017-12-15T08:05:57.752Z,23.23
2017-12-15T08:06:58.218Z,23.32
2017-12-15T08:07:57.667Z,23.29
2017-12-15T08:08:57.626Z,23.21
2017-12-15T08:09:57.601Z,23.34
2017-12-15T08:10:57.584Z,23.33
2017-12-15T08:11:57.545Z,23.25
2017-12-15T08:12:57.528Z,23.26
2017-12-15T08:13:57.519Z,23.28
2017-12-15T08:14:57.477Z,23.25
2017-12-15T08:15:57.446Z,23.29
2017-12-15T08:16:57.419Z,23.32
2017-12-15T08:17:57.397Z,23.28
2017-12-15T08:18:57.382Z,23.29
2017-12-15T08:19:57.343Z,23.21
2017-12-15T08:20:57.335Z,23.28
2017-12-15T08:21:57.284Z,23.28
2017-12-15T08:22:57.267Z,23.23
2017-12-15T08:23:57.253Z,23.36
2017-12-15T08:24:57.227Z,23.33
2017-12-15T08:25:57.175Z,23.23
2017-12-15T08:26:57.164Z,23.25
2017-12-15T08:27:57.133Z,23.21
2017-12-15T08:28:57.103Z,23.23
2017-12-15T08:29:57.102Z,23.16
2017-12-15T08:30:57.071Z,23.36
2017-12-15T08:31:57.052Z,23.42
2017-12-15T08:32:57.009Z,23.23
2017-12-15T08:33:56.975Z,23.34
2017-12-15T08:34:56.979Z,23.26
2017-12-15T08:35:56.935Z,23.34
2017-12-15T08:36:56.900Z,23.33
2017-12-15T08:37:56.879Z,23.26
2017-12-15T08:38:56.850Z,23.28
2017-12-15T08:39:56.832Z,23.25
2017-12-15T08:40:57.722Z,23.25
2017-12-15T08:41:56.774Z,23.39
2017-12-15T08:42:56.746Z,23.36
2017-12-15T08:43:56.723Z,23.34
2017-12-15T08:44:56.692Z,23.34
2017-12-15T08:45:56.662Z,23.42
2017-12-15T08:46:56.660Z,23.47
2017-12-15T08:47:56.625Z,23.39
2017-12-15T08:48:56.592Z,23.39
2017-12-15T08:49:56.562Z,23.39
2017-12-15T08:50:56.557Z,23.48
2017-12-15T08:51:56.526Z,23.42
2017-12-15T08:52:56.479Z,23.40
2017-12-15T08:53:56.482Z,23.45
2017-12-15T08:54:56.444Z,23.48
2017-12-15T08:55:56.413Z,23.48
2017-12-15T08:56:56.388Z,23.47
2017-12-15T08:57:56.358Z,23.56
2017-12-15T08:58:56.334Z,23.52
2017-12-15T08:59:56.307Z,23.54
2017-12-15T09:00:56.329Z,23.52
2017-12-15T09:01:56.257Z,23.51
2017-12-15T09:02:56.231Z,23.51
2017-12-15T09:03:56.191Z,23.54
2017-12-15T09:04:56.194Z,23.51
2017-12-15T09:05:56.155Z,23.52
2017-12-15T09:06:56.164Z,23.54
2017-12-15T09:07:56.120Z,23.67
2017-12-15T09:08:56.083Z,23.66
2017-12-15T09:09:56.043Z,23.64
2017-12-15T09:10:56.025Z,23.71
2017-12-15T09:11:56.000Z,23.66
2017-12-15T09:12:55.974Z,23.66
2017-12-15T09:13:56.729Z,23.70
2017-12-15T09:14:55.991Z,23.71
2017-12-15T09:15:55.898Z,23.71
2017-12-15T09:16:55.877Z,23.71
2017-12-15T09:17:55.849Z,23.74
2017-12-15T09:18:55.836Z,23.69
2017-12-15T09:19:55.785Z,23.73
2017-12-15T09:20:55.773Z,23.77
2017-12-15T09:21:55.760Z,23.73
2017-12-15T09:22:55.714Z,23.79
2017-12-15T09:23:55.682Z,23.82
2017-12-15T09:24:55.684Z,23.79
2017-12-15T09:25:55.638Z,23.79
2017-12-15T09:26:55.622Z,23.77
2017-12-15T09:27:55.577Z,23.79
2017-12-15T09:28:55.563Z,23.77
2017-12-15T09:29:55.549Z,23.79
2017-12-15T09:30:55.490Z,23.89
2017-12-15T09:31:55.500Z,23.94
2017-12-15T09:32:55.475Z,23.91
2017-12-15T09:33:55.429Z,24.01
2017-12-15T09:34:55.408Z,23.99
2017-12-15T09:35:55.384Z,24.03
2017-12-15T09:36:55.353Z,24.13
2017-12-15T09:37:55.336Z,24.16
2017-12-15T09:38:55.317Z,24.10
2017-12-15T09:39:55.277Z,24.19
2017-12-15T09:40:55.253Z,24.10
2017-12-15T09:41:55.229Z,24.11
2017-12-15T09:42:55.196Z,24.21
2017-12-15T09:43:55.169Z,24.25
2017-12-15T09:44:55.148Z,24.21
2017-12-15T09:45:55.114Z,24.28
2017-12-15T09:46:55.095Z,24.29
2017-12-15T09:47:55.062Z,24.29
2017-12-15T09:48:55.044Z,24.40
2017-12-15T09:49:55.043Z,24.36
2017-12-15T09:50:54.994Z,24.34
2017-12-15T09:51:54.990Z,24.41
2017-12-15T09:52:54.936Z,24.47
2017-12-15T09:53:54.927Z,24.50
2017-12-15T09:54:54.891Z,24.50
2017-12-15T09:55:54.857Z,24.55
2017-12-15T09:56:54.847Z,24.63
2017-12-15T09:57:54.839Z,24.63
2017-12-15T09:58:54.812Z,24.65
2017-12-15T09:59:54.763Z,24.59
2017-12-15T10:00:54.765Z,24.65
2017-12-15T10:01:54.723Z,24.68
2017-12-15T10:02:54.691Z,24.82
2017-12-15T10:03:54.659Z,24.85
2017-12-15T10:04:54.637Z,24.82
2017-12-15T10:05:54.634Z,24.99
2017-12-15T10:06:54.601Z,24.93
2017-12-15T10:07:54.582Z,24.93
2017-12-15T10:08:54.558Z,24.99
2017-12-15T10:09:54.514Z,25.03
2017-12-15T10:10:54.498Z,25.04
2017-12-15T10:11:54.476Z,25.11
2017-12-15T10:12:54.433Z,25.14
2017-12-15T10:13:54.427Z,25.25
2017-12-15T10:14:54.383Z,25.26
2017-12-15T10:15:54.366Z,25.36
2017-12-15T10:16:54.331Z,25.39
2017-12-15T10:17:54.315Z,25.52
2017-12-15T10:18:54.287Z,25.48
2017-12-15T10:19:54.280Z,25.61
2017-12-15T10:20:54.243Z,25.58
2017-12-15T10:21:54.219Z,25.61
2017-12-15T10:22:54.186Z,25.61
2017-12-15T10:23:54.184Z,25.68
2017-12-15T10:24:54.153Z,25.74
2017-12-15T10:25:54.128Z,25.85
2017-12-15T10:26:54.090Z,25.89
2017-12-15T10:27:54.065Z,25.92
2017-12-15T10:28:54.039Z,25.85
2017-12-15T10:29:54.025Z,25.99
2017-12-15T10:30:54.002Z,25.93
2017-12-15T10:31:53.967Z,26.08
2017-12-15T10:32:53.936Z,26.19
2017-12-15T10:33:53.929Z,26.27
2017-12-15T10:34:53.886Z,26.39
2017-12-15T10:35:53.869Z,26.49
2017-12-15T10:36:53.842Z,26.55
2017-12-15T10:37:53.832Z,26.56
2017-12-15T10:38:53.795Z,26.68
2017-12-15T10:39:53.771Z,26.70
2017-12-15T10:40:53.744Z,26.82
2017-12-15T10:41:53.708Z,26.81
2017-12-15T10:42:53.703Z,26.91
2017-12-15T10:43:53.671Z,26.92
2017-12-15T10:44:53.637Z,26.91
2017-12-15T10:45:53.637Z,26.91
2017-12-15T10:46:53.615Z,27.03
2017-12-15T10:47:53.561Z,27.07
2017-12-15T10:48:53.557Z,27.07
2017-12-15T10:49:53.534Z,27.03
2017-12-15T10:50:53.523Z,27.15
2017-12-15T10:51:53.470Z,27.10
2017-12-15T10:52:53.451Z,27.10
2017-12-15T10:53:53.414Z,27.18
2017-12-15T10:54:53.401Z,27.25
2017-12-15T10:55:53.372Z,27.22
2017-12-15T10:56:53.348Z,27.25
2017-12-15T10:57:53.317Z,27.28
2017-12-15T10:58:53.325Z,27.37
2017-12-15T10:59:53.290Z,27.47
2017-12-15T11:00:53.245Z,27.44
2017-12-15T11:01:53.225Z,27.58
2017-12-15T11:02:53.202Z,27.63
2017-12-15T11:03:53.186Z,27.64
2017-12-15T11:04:53.144Z,27.61
2017-12-15T11:05:53.131Z,27.73
2017-12-15T11:06:53.088Z,27.72
2017-12-15T11:07:53.084Z,27.75
2017-12-15T11:08:53.062Z,27.75
2017-12-15T11:09:53.034Z,27.83
2017-12-15T11:10:53.057Z,27.85
2017-12-15T11:11:52.997Z,27.91
2017-12-15T11:12:53.007Z,27.90
2017-12-15T11:13:52.955Z,27.95
2017-12-15T11:14:52.926Z,28.00
2017-12-15T11:15:52.908Z,28.09
2017-12-15T11:16:52.868Z,28.20
2017-12-15T11:17:52.837Z,28.23
2017-12-15T11:18:52.870Z,28.31
2017-12-15T11:19:52.812Z,28.38
2017-12-15T11:20:52.759Z,28.47
2017-12-15T11:21:52.749Z,28.38
2017-12-15T11:22:52.752Z,28.41
2017-12-15T11:23:52.696Z,28.49
2017-12-15T11:24:52.692Z,28.40
2017-12-15T11:25:52.668Z,28.50
2017-12-15T11:26:52.701Z,28.47
2017-12-15T11:27:52.658Z,28.49
2017-12-15T11:28:52.580Z,28.46
2017-12-15T11:29:52.574Z,28.46
2017-12-15T11:30:52.533Z,28.47
2017-12-15T11:31:52.524Z,28.49
2017-12-15T11:32:52.480Z,28.47
2017-12-15T11:33:52.469Z,28.50
2017-12-15T11:34:52.445Z,28.53
2017-12-15T11:35:52.408Z,28.47
2017-12-15T11:36:52.438Z,28.50
2017-12-15T11:37:52.369Z,28.55
2017-12-15T11:38:52.365Z,28.53
2017-12-15T11:39:52.309Z,28.71
2017-12-15T11:40:52.299Z,28.77
2017-12-15T11:41:52.274Z,28.71
2017-12-15T11:42:52.252Z,28.78
2017-12-15T11:43:52.223Z,28.70
2017-12-15T11:44:52.193Z,28.78
2017-12-15T11:45:52.179Z,28.87
2017-12-15T11:46:52.208Z,28.92
2017-12-15T11:47:52.134Z,28.86
2017-12-15T11:48:52.101Z,29.00
2017-12-15T11:49:52.088Z,28.90
2017-12-15T11:50:52.061Z,29.07
2017-12-15T11:51:52.039Z,29.02
2017-12-15T11:52:52.004Z,29.07
2017-12-15T11:53:51.980Z,29.20
2017-12-15T11:54:51.983Z,29.24
2017-12-15T11:55:51.979Z,29.18
2017-12-15T11:56:51.916Z,29.15
2017-12-15T11:57:51.899Z,29.21
2017-12-15T11:58:51.868Z,29.28
2017-12-15T11:59:51.858Z,29.30
2017-12-15T12:00:51.816Z,29.35
2017-12-15T12:01:51.815Z,29.40
2017-12-15T12:02:51.795Z,29.44
2017-12-15T12:03:51.771Z,29.52
2017-12-15T12:04:51.739Z,29.57
2017-12-15T12:05:51.698Z,29.62
2017-12-15T12:06:51.691Z,29.62
2017-12-15T12:07:51.680Z,29.71
2017-12-15T12:08:51.638Z,29.58
2017-12-15T12:09:51.610Z,29.71
2017-12-15T12:10:51.615Z,29.76
2017-12-15T12:11:51.581Z,29.80
2017-12-15T12:12:51.565Z,29.80
2017-12-15T12:13:51.542Z,29.87
2017-12-15T12:14:51.520Z,29.89
2017-12-15T12:15:51.481Z,29.94
2017-12-15T12:16:51.475Z,29.98
2017-12-15T12:17:51.437Z,29.92
2017-12-15T12:18:51.407Z,29.96
2017-12-15T12:19:51.428Z,29.92
2017-12-15T12:20:51.365Z,29.96
2017-12-15T12:21:51.339Z,30.01
2017-12-15T12:22:51.351Z,30.05
2017-12-15T12:23:51.309Z,30.08
2017-12-15T12:24:51.287Z,30.08
2017-12-15T12:25:51.259Z,30.21
2017-12-15T12:26:51.777Z,30.11
2017-12-15T12:27:51.222Z,30.20
2017-12-15T12:28:51.175Z,30.31
2017-12-15T12:29:51.171Z,30.43
2017-12-15T12:30:51.164Z,30.52
2017-12-15T12:31:51.114Z,30.46
2017-12-15T12:32:51.106Z,30.48
2017-12-15T12:33:51.096Z,30.49
2017-12-15T12:34:51.048Z,30.59
2017-12-15T12:35:51.039Z,30.54
2017-12-15T12:36:51.003Z,30.49
2017-12-15T12:37:50.964Z,30.55
2017-12-15T12:38:50.977Z,30.55
2017-12-15T12:39:50.929Z,30.59
2017-12-15T12:40:50.933Z,30.54
2017-12-15T12:41:50.878Z,30.55
2017-12-15T12:42:50.865Z,30.39
2017-12-15T12:43:50.858Z,30.51
2017-12-15T12:44:50.841Z,30.67
2017-12-15T12:45:51.774Z,30.63
2017-12-15T12:46:50.764Z,30.65
2017-12-15T12:47:50.768Z,30.74
2017-12-15T12:48:50.727Z,30.77
2017-12-15T12:49:50.702Z,30.77
2017-12-15T12:50:50.701Z,30.77
2017-12-15T12:51:50.662Z,30.70